Ossineke, Michigan
Current Conditions -  °F | °C
As of 5:54 PM on Wednesday 22 Oct 2014 (Local Time) from KAPN Reporting Station
Clear Clear  
Wind Chill: 42°   Ceiling: Unl
Heat Index: 46°   Visibility: 10mi
Dew Point: 34°   Wind: 7mph
Humidity: 63%   Direction: 70°ENE
Pressure: 30.32"   Gusts: NA
Location:  44.9°N, 83.44°W
Report Text: KAPN 222154Z AUTO 07006KT 10SM CLR 08/01 A3032 RMK AO2 SLP273 T00780011
Loading
Personal Weather Stations






























Interactive Weather Map
Tropical Storm Tracking
New forecast layout! Learn more

10-Day Weather Forecast

Advertisements
Track Severe Weather on mobile